Time;durP1;ratioP1;P1;durP2;ratioP2;P2;SDS_P1;SDS_P2;PMS_P1;PMS_P2;Temp;Humidity;BMP_temperature;BMP_pressure;BME280_temperature;BME280_humidity;BME280_pressure;Samples;Min_cycle;Max_cycle;Signal;HPM_P1;HPM_P2
2022/04/05 00:02:22;;;;;;;6.47;5.78;;;;;;;5.06;77.47;97520.53;5015435;28;20469;-80
2022/04/05 00:04:48;;;;;;;5.85;5.35;;;;;;;5.10;77.87;97511.06;5011655;28;20029;-80
2022/04/05 00:07:14;;;;;;;5.82;5.30;;;;;;;5.06;78.53;97525.81;5002950;28;20042;-80
2022/04/05 00:09:39;;;;;;;6.88;6.28;;;;;;;5.03;78.31;97517.56;5006849;28;20059;-80
2022/04/05 00:12:05;;;;;;;5.78;5.20;;;;;;;5.05;78.64;97512.81;5005296;28;20025;-80
2022/04/05 00:14:30;;;;;;;5.57;4.95;;;;;;;5.05;78.07;97505.69;5008710;28;20477;-80
2022/04/05 00:16:56;;;;;;;6.35;5.22;;;;;;;5.05;78.48;97504.91;5013555;28;20040;-80
2022/04/05 00:19:22;;;;;;;5.50;5.00;;;;;;;5.05;78.19;97508.34;5008480;28;20034;-80
2022/04/05 00:21:48;;;;;;;5.55;4.53;;;;;;;5.05;78.50;97503.06;5010313;28;20093;-80
2022/04/05 00:24:17;;;;;;;6.43;4.78;;;;;;;5.06;78.45;97502.03;4975730;28;20444;-80
2022/04/05 00:26:42;;;;;;;4.38;3.97;;;;;;;5.06;77.92;97496.75;5008494;28;20030;-80
2022/04/05 00:29:08;;;;;;;5.72;4.60;;;;;;;5.06;78.21;97496.75;5012385;28;20029;-81
2022/04/05 00:31:34;;;;;;;5.75;4.60;;;;;;;5.06;78.14;97488.00;5017907;28;20041;-80
2022/04/05 00:33:59;;;;;;;5.22;4.60;;;;;;;5.06;78.60;97483.50;5002551;28;20058;-80
2022/04/05 00:36:24;;;;;;;5.78;5.28;;;;;;;5.07;78.33;97469.22;5002777;28;20038;-80
2022/04/05 00:38:50;;;;;;;4.43;4.07;;;;;;;5.07;78.90;97479.81;5016647;28;20038;-80
2022/04/05 00:41:15;;;;;;;4.93;4.45;;;;;;;5.08;78.41;97486.72;5009241;28;20057;-80
2022/04/05 00:43:40;;;;;;;4.75;4.38;;;;;;;5.08;78.67;97475.31;5020978;28;20029;-80
2022/04/05 00:46:06;;;;;;;5.05;4.60;;;;;;;5.09;78.32;97476.91;5018802;28;20573;-80
2022/04/05 00:48:55;;;;;;;5.30;4.80;;;;;;;5.09;78.46;97474.25;4989175;28;20040;-80
2022/04/05 00:51:20;;;;;;;4.90;4.40;;;;;;;5.12;78.52;97466.66;5003597;28;20033;-80
2022/04/05 00:53:48;;;;;;;4.45;4.05;;;;;;;5.13;78.49;97478.03;5003522;28;20521;-80
2022/04/05 00:56:15;;;;;;;3.95;3.60;;;;;;;5.12;78.56;97481.72;5003425;28;20117;-80
2022/04/05 00:58:44;;;;;;;4.57;4.18;;;;;;;5.10;78.57;97467.94;5001456;28;20022;-80
2022/04/05 01:01:15;;;;;;;4.57;4.05;;;;;;;5.08;78.78;97470.84;5004212;28;20401;-80
2022/04/05 01:03:43;;;;;;;3.88;3.58;;;;;;;5.13;78.42;97472.75;5007292;28;20546;-80
2022/04/05 01:06:09;;;;;;;4.10;3.70;;;;;;;5.09;78.79;97467.13;5007518;28;20031;-80
2022/04/05 01:08:35;;;;;;;4.60;4.05;;;;;;;5.13;79.03;97464.81;5007415;28;20532;-80
2022/04/05 01:11:00;;;;;;;5.88;4.30;;;;;;;5.09;78.95;97468.97;5003446;28;20125;-80
2022/04/05 01:13:27;;;;;;;3.80;3.50;;;;;;;5.08;79.03;97460.28;5005664;28;20036;-80
2022/04/05 01:15:53;;;;;;;6.07;4.10;;;;;;;5.16;78.76;97461.66;4988177;28;20033;-80
2022/04/05 01:18:18;;;;;;;3.88;3.45;;;;;;;5.11;78.61;97459.75;5006597;28;20030;-80
2022/04/05 01:20:43;;;;;;;4.30;3.80;;;;;;;5.16;78.85;97466.94;4990888;28;21508;-80
2022/04/05 01:23:09;;;;;;;4.00;3.67;;;;;;;5.14;78.49;97456.63;5021149;28;20053;-80
2022/04/05 01:25:34;;;;;;;4.07;3.70;;;;;;;5.15;79.06;97463.53;5005637;28;20520;-80
2022/04/05 01:27:59;;;;;;;4.80;4.40;;;;;;;5.16;78.29;97457.19;4985363;28;20034;-80
2022/04/05 01:30:25;;;;;;;4.38;3.97;;;;;;;5.22;78.61;97461.47;4983525;28;20037;-81
2022/04/05 01:32:50;;;;;;;4.38;3.97;;;;;;;5.17;78.65;97452.69;5006042;28;20576;-80
2022/04/05 01:35:16;;;;;;;4.43;4.03;;;;;;;5.15;79.05;97452.94;5009897;28;20120;-80
2022/04/05 01:37:42;;;;;;;4.63;4.22;;;;;;;5.18;78.90;97441.84;4982590;28;20111;-80
2022/04/05 01:40:08;;;;;;;3.95;3.65;;;;;;;5.21;79.07;97456.44;5014181;28;20034;-80
2022/04/05 01:42:34;;;;;;;4.22;3.83;;;;;;;5.18;78.78;97455.09;5004788;28;20793;-80
2022/04/05 01:45:00;;;;;;;4.35;3.95;;;;;;;5.17;79.12;97456.16;5014750;28;20022;-80
2022/04/05 01:47:26;;;;;;;7.25;4.43;;;;;;;5.18;79.43;97439.22;4997683;28;20053;-80
2022/04/05 01:49:51;;;;;;;3.95;3.60;;;;;;;5.21;79.26;97453.78;5001985;28;20029;-80
2022/04/05 01:52:17;;;;;;;4.60;4.20;;;;;;;5.18;79.18;97454.28;5001863;28;20033;-80
2022/04/05 01:54:43;;;;;;;5.43;4.22;;;;;;;5.13;79.48;97454.25;4999734;28;20504;-80
2022/04/05 01:57:08;;;;;;;4.82;4.43;;;;;;;5.17;79.07;97447.41;5024163;28;20069;-80
2022/04/05 01:59:37;;;;;;;4.80;4.40;;;;;;;5.20;79.54;97452.97;5005680;28;20034;-80
2022/04/05 02:02:06;;;;;;;5.10;4.60;;;;;;;5.19;79.37;97454.03;5008420;28;20406;-80
2022/04/05 02:04:32;;;;;;;4.68;4.28;;;;;;;5.19;79.04;97447.94;5005056;28;20041;-80
2022/04/05 02:06:58;;;;;;;4.75;4.32;;;;;;;5.21;79.41;97459.06;4988111;28;20034;-80
2022/04/05 02:09:23;;;;;;;4.72;4.32;;;;;;;5.23;79.43;97457.78;5005075;28;20037;-80
2022/04/05 02:11:48;;;;;;;6.13;4.80;;;;;;;5.23;78.89;97473.66;5000122;28;20036;-80
2022/04/05 02:14:16;;;;;;;4.82;4.20;;;;;;;5.19;79.73;97471.75;5024384;28;20037;-80
2022/04/05 02:16:42;;;;;;;5.40;4.53;;;;;;;5.19;79.67;97477.84;4992977;28;20117;-80
2022/04/05 02:19:07;;;;;;;4.05;3.75;;;;;;;5.25;79.39;97478.69;5005965;28;20113;-80
2022/04/05 02:21:32;;;;;;;5.07;4.57;;;;;;;5.29;79.43;97493.81;4985819;28;20030;-80
2022/04/05 02:23:58;;;;;;;4.60;4.20;;;;;;;5.36;79.33;97493.63;4990537;28;20053;-81
2022/04/05 02:26:23;;;;;;;4.88;4.47;;;;;;;5.28;79.48;97481.66;5002967;28;20120;-80
2022/04/05 02:28:49;;;;;;;4.50;4.10;;;;;;;5.25;79.54;97487.44;5003949;28;20049;-80
2022/04/05 02:31:15;;;;;;;5.25;4.63;;;;;;;5.31;79.23;97496.22;5005598;28;20049;-80
2022/04/05 02:33:41;;;;;;;4.45;4.13;;;;;;;5.26;80.19;97489.00;5005576;28;20041;-80
2022/04/05 02:36:07;;;;;;;5.30;4.18;;;;;;;5.22;79.76;97479.22;5010876;28;20030;-80
2022/04/05 02:38:33;;;;;;;4.28;3.88;;;;;;;5.30;79.70;97476.13;5004084;28;20034;-80
2022/04/05 02:40:59;;;;;;;4.30;3.83;;;;;;;5.23;79.62;97463.09;5001123;28;20077;-80
2022/04/05 02:43:24;;;;;;;3.72;3.42;;;;;;;5.26;79.54;97459.16;5006593;28;20033;-80
2022/04/05 02:45:50;;;;;;;3.60;3.33;;;;;;;5.24;79.69;97469.94;5005050;28;20302;-80
2022/04/05 02:48:16;;;;;;;4.03;3.67;;;;;;;5.27;80.34;97477.41;5007851;28;20041;-80
2022/04/05 02:50:41;;;;;;;4.50;3.88;;;;;;;5.23;79.68;97467.56;4988869;28;20072;-80
2022/04/05 02:53:07;;;;;;;4.13;3.72;;;;;;;5.30;79.33;97468.19;4985051;28;20022;-80
2022/04/05 02:55:32;;;;;;;3.80;3.50;;;;;;;5.28;79.96;97478.22;5018687;28;20068;-80
2022/04/05 02:57:57;;;;;;;3.72;3.42;;;;;;;5.28;80.40;97488.78;5004181;28;20410;-80
2022/04/05 03:00:23;;;;;;;3.90;3.60;;;;;;;5.34;80.10;97490.44;5022916;28;20159;-80
2022/04/05 03:02:48;;;;;;;3.63;3.33;;;;;;;5.29;80.61;97495.66;4999874;28;20042;-80
2022/04/05 03:05:14;;;;;;;2.72;2.53;;;;;;;5.29;80.66;97500.94;4999442;28;20066;-80
2022/04/05 03:07:40;;;;;;;2.83;2.63;;;;;;;5.32;80.45;97495.97;5012548;28;20041;-80
2022/04/05 03:10:08;;;;;;;2.97;2.78;;;;;;;5.29;81.04;97501.75;5003033;28;20083;-80
2022/04/05 03:12:35;;;;;;;3.08;2.78;;;;;;;5.29;80.71;97501.75;5006843;28;20037;-80
2022/04/05 03:15:01;;;;;;;2.58;2.38;;;;;;;5.27;80.65;97503.03;5009675;28;20124;-80
2022/04/05 03:17:26;;;;;;;2.90;2.70;;;;;;;5.34;80.93;97508.94;5001409;28;20149;-80
2022/04/05 03:19:52;;;;;;;2.30;2.10;;;;;;;5.28;81.14;97492.25;5004468;28;20541;-80
2022/04/05 03:22:17;;;;;;;2.15;2.05;;;;;;;5.29;81.06;97512.34;5000352;28;20517;-80
2022/04/05 03:24:43;;;;;;;2.20;2.03;;;;;;;5.36;80.61;97514.78;4996039;28;20038;-80
2022/04/05 03:27:08;;;;;;;3.88;2.05;;;;;;;5.36;81.00;97514.78;4994250;28;20079;-80
2022/04/05 03:29:34;;;;;;;2.38;2.17;;;;;;;5.27;80.79;97513.63;5000846;28;20038;-80
2022/04/05 03:32:00;;;;;;;2.65;2.45;;;;;;;5.39;80.61;97516.97;5019563;28;20143;-80
2022/04/05 03:34:25;;;;;;;1.98;1.80;;;;;;;5.35;80.83;97509.75;5003856;28;20034;-80
2022/04/05 03:36:50;;;;;;;1.98;1.88;;;;;;;5.30;81.18;97499.91;5009608;28;20560;-80
2022/04/05 03:39:16;;;;;;;2.67;2.35;;;;;;;5.31;81.25;97499.66;5004412;28;20030;-80
2022/04/05 03:41:41;;;;;;;2.45;2.25;;;;;;;5.32;80.83;97508.41;4988280;28;20124;-80
2022/04/05 03:44:07;;;;;;;2.55;2.35;;;;;;;5.34;81.33;97503.66;5001616;28;20075;-80
2022/04/05 03:46:33;;;;;;;3.08;1.92;;;;;;;5.35;80.70;97492.06;5002713;28;20042;-80
2022/04/05 03:48:59;;;;;;;3.90;2.58;;;;;;;5.39;80.72;97500.28;5004250;28;20037;-80
2022/04/05 03:51:24;;;;;;;1.88;1.77;;;;;;;5.36;80.56;97509.50;5003671;28;20034;-80
2022/04/05 03:53:49;;;;;;;2.13;2.00;;;;;;;5.37;80.53;97505.81;4996407;28;20034;-80
2022/04/05 03:56:15;;;;;;;2.33;2.22;;;;;;;5.41;80.41;97504.28;4993030;28;20095;-80
2022/04/05 03:58:40;;;;;;;2.58;2.38;;;;;;;5.36;80.74;97500.75;5012830;28;20031;-80
2022/04/05 04:01:06;;;;;;;2.45;2.25;;;;;;;5.44;80.19;97519.63;4999763;28;20504;-80
2022/04/05 04:03:32;;;;;;;2.33;2.22;;;;;;;5.44;80.19;97516.22;5019152;28;20052;-80
2022/04/05 04:05:59;;;;;;;2.22;2.03;;;;;;;5.41;80.43;97511.41;4985864;28;20030;-80
2022/04/05 04:08:24;;;;;;;2.50;2.30;;;;;;;5.47;79.33;97515.69;4971860;28;20040;-81
2022/04/05 04:10:51;;;;;;;2.75;2.55;;;;;;;5.44;80.19;97516.22;5003199;28;20400;-80
2022/04/05 04:13:16;;;;;;;4.50;2.60;;;;;;;5.47;80.24;97518.34;5007743;28;20466;-81
2022/04/05 04:15:42;;;;;;;2.85;2.40;;;;;;;5.49;80.04;97525.00;5005984;28;20045;-81
2022/04/05 04:18:07;;;;;;;2.53;2.33;;;;;;;5.47;79.59;97532.38;5004688;28;20448;-81
2022/04/05 04:20:32;;;;;;;2.20;2.10;;;;;;;5.49;79.92;97530.28;5016240;28;20067;-81
2022/04/05 04:22:58;;;;;;;2.67;2.47;;;;;;;5.50;80.18;97539.84;5005868;28;20481;-81
2022/04/05 04:25:23;;;;;;;2.83;2.60;;;;;;;5.46;79.81;97541.34;5016755;28;20084;-81
2022/04/05 04:27:48;;;;;;;2.47;2.28;;;;;;;5.49;80.22;97542.72;5023068;28;20117;-81
2022/04/05 04:30:14;;;;;;;2.35;2.17;;;;;;;5.51;79.78;97541.41;5005564;28;20044;-81
2022/04/05 04:32:39;;;;;;;2.90;2.50;;;;;;;5.50;80.35;97544.31;5001969;28;20026;-81
2022/04/05 04:35:05;;;;;;;2.38;2.17;;;;;;;5.49;80.20;97548.81;5005880;28;20069;-81
2022/04/05 04:37:31;;;;;;;2.55;2.10;;;;;;;5.50;80.75;97549.63;5023249;28;20432;-81
2022/04/05 04:39:56;;;;;;;4.07;2.30;;;;;;;5.52;80.31;97550.97;4973871;28;20382;-81
2022/04/05 04:42:22;;;;;;;2.10;2.00;;;;;;;5.55;79.84;97554.97;5007423;28;20084;-81
2022/04/05 04:44:47;;;;;;;2.42;2.22;;;;;;;5.52;79.88;97552.81;5007344;28;20469;-81
2022/04/05 04:47:12;;;;;;;2.83;2.63;;;;;;;5.52;80.08;97561.56;5009261;28;20117;-81
2022/04/05 04:49:37;;;;;;;3.03;2.83;;;;;;;5.54;80.19;97562.09;5004503;28;20144;-81
2022/04/05 04:52:03;;;;;;;1.95;1.85;;;;;;;5.56;80.78;97562.66;5021524;28;20080;-81
2022/04/05 04:54:29;;;;;;;3.45;2.20;;;;;;;5.56;80.81;97556.56;5005004;28;20396;-81
2022/04/05 04:56:54;;;;;;;1.85;1.75;;;;;;;5.59;80.48;97562.16;4986853;28;20040;-81
2022/04/05 04:59:19;;;;;;;2.05;1.88;;;;;;;5.54;81.21;97554.16;5001749;28;20038;-80
2022/04/05 05:01:44;;;;;;;2.10;2.00;;;;;;;5.53;81.24;97564.97;4991361;28;20104;-81
2022/04/05 05:04:10;;;;;;;2.40;2.20;;;;;;;5.55;80.99;97557.63;5006886;28;20032;-81
2022/04/05 05:06:35;;;;;;;2.30;2.10;;;;;;;5.64;80.62;97561.41;5008167;28;20402;-81
2022/04/05 05:09:01;;;;;;;2.10;1.90;;;;;;;5.58;80.90;97562.41;5001708;28;20049;-81
2022/04/05 05:11:26;;;;;;;2.30;2.10;;;;;;;5.56;80.86;97565.31;4991463;28;20034;-81
2022/04/05 05:13:52;;;;;;;2.45;2.25;;;;;;;5.53;80.95;97562.34;5008036;28;20092;-81
2022/04/05 05:16:17;;;;;;;2.20;2.10;;;;;;;5.61;81.09;97573.31;5005287;28;20098;-81
2022/04/05 05:18:43;;;;;;;2.13;1.98;;;;;;;5.60;81.23;97577.00;5009675;28;20021;-81
2022/04/05 05:21:08;;;;;;;2.25;1.98;;;;;;;5.61;81.08;97577.81;5003074;28;20061;-80
2022/04/05 05:23:33;;;;;;;2.30;2.10;;;;;;;5.60;80.63;97578.84;5005045;28;20813;-80
2022/04/05 05:25:59;;;;;;;4.40;2.28;;;;;;;5.63;81.29;97589.75;4974663;28;20033;-80
2022/04/05 05:28:24;;;;;;;1.75;1.65;;;;;;;5.69;80.73;97588.75;5004238;28;20029;-81
2022/04/05 05:30:49;;;;;;;2.03;1.92;;;;;;;5.62;81.45;97585.47;4988273;28;20060;-81
2022/04/05 05:33:15;;;;;;;2.22;1.83;;;;;;;5.65;80.45;97592.94;4974470;28;20057;-81
2022/04/05 05:35:41;;;;;;;2.25;2.00;;;;;;;5.67;80.59;97597.97;5005474;28;20038;-80
2022/04/05 05:38:07;;;;;;;2.08;1.98;;;;;;;5.72;80.75;97604.13;4998572;28;20489;-80
2022/04/05 05:40:32;;;;;;;3.10;2.17;;;;;;;5.74;80.87;97604.69;5000627;28;20048;-81
2022/04/05 05:43:01;;;;;;;2.58;2.38;;;;;;;5.72;80.41;97606.75;4993804;28;20030;-80
2022/04/05 05:45:29;;;;;;;3.45;3.13;;;;;;;5.70;80.82;97603.56;5001029;28;20087;-80
2022/04/05 05:47:55;;;;;;;2.33;2.10;;;;;;;5.71;80.82;97602.53;5012220;28;20023;-81
2022/04/05 05:50:20;;;;;;;2.65;2.20;;;;;;;5.74;80.92;97602.03;5000112;28;20036;-81
2022/04/05 05:52:46;;;;;;;2.58;2.10;;;;;;;5.77;80.93;97604.19;5001768;28;20397;-81
2022/04/05 05:55:14;;;;;;;2.60;2.40;;;;;;;5.72;80.64;97609.41;5004294;28;20038;-81
2022/04/05 05:57:40;;;;;;;2.78;2.28;;;;;;;5.79;80.20;97619.81;5002528;28;20467;-81
2022/04/05 06:00:09;;;;;;;3.03;2.55;;;;;;;5.79;80.89;97620.63;5003078;28;20531;-81
2022/04/05 06:02:41;;;;;;;2.38;2.17;;;;;;;5.83;80.26;97637.59;5004270;28;20030;-81
2022/04/05 06:05:08;;;;;;;4.25;2.97;;;;;;;5.85;81.87;97632.09;5003649;28;20021;-81
2022/04/05 06:07:34;;;;;;;3.63;3.00;;;;;;;5.82;81.93;97635.22;5017076;28;20029;-81
2022/04/05 06:10:04;;;;;;;3.63;3.03;;;;;;;5.81;82.36;97636.28;5005018;28;20029;-80
2022/04/05 06:12:29;;;;;;;4.80;3.20;;;;;;;5.87;82.75;97645.91;5021620;28;20025;-80
2022/04/05 06:14:55;;;;;;;3.67;2.92;;;;;;;5.82;82.46;97640.50;5009176;28;20045;-80
2022/04/05 06:17:20;;;;;;;3.15;2.85;;;;;;;5.87;81.90;97648.53;4991675;28;20112;-81
2022/04/05 06:19:46;;;;;;;4.45;2.50;;;;;;;5.83;82.14;97645.53;5006445;28;20083;-80
2022/04/05 06:22:12;;;;;;;3.28;2.85;;;;;;;5.88;83.03;97656.22;5002633;28;20084;-80
2022/04/05 06:24:37;;;;;;;4.90;3.63;;;;;;;5.89;82.05;97655.19;4985696;28;20452;-81
2022/04/05 06:27:02;;;;;;;4.22;2.90;;;;;;;5.91;82.72;97654.94;5001092;28;20084;-80
2022/04/05 06:29:28;;;;;;;4.15;2.85;;;;;;;5.91;82.65;97657.59;5004444;28;20036;-81
2022/04/05 06:31:53;;;;;;;5.07;2.97;;;;;;;5.94;82.28;97657.88;5001735;28;20563;-81
2022/04/05 06:34:18;;;;;;;4.90;3.30;;;;;;;5.98;83.25;97666.16;4999142;28;20038;-81
2022/04/05 06:36:44;;;;;;;6.68;3.42;;;;;;;6.01;82.59;97673.59;4991104;28;20088;-81
2022/04/05 06:39:10;;;;;;;5.22;3.08;;;;;;;5.99;83.61;97668.53;4992350;28;20120;-81
2022/04/05 06:41:35;;;;;;;3.90;3.40;;;;;;;6.00;83.64;97672.81;4992112;28;20088;-80
2022/04/05 06:44:01;;;;;;;3.90;3.47;;;;;;;6.03;83.90;97684.72;4997699;28;20465;-81
2022/04/05 06:46:26;;;;;;;5.38;4.28;;;;;;;6.05;84.72;97669.38;5004446;28;20030;-82
2022/04/05 06:48:51;;;;;;;4.85;4.20;;;;;;;6.06;83.77;97676.28;4991453;28;20739;-82
2022/04/05 06:51:18;;;;;;;5.38;3.80;;;;;;;6.05;83.33;97664.91;4977657;28;20041;-81
2022/04/05 06:53:44;;;;;;;4.18;3.78;;;;;;;6.04;83.07;97660.66;4980059;28;20651;-82
2022/04/05 06:56:10;;;;;;;5.47;4.25;;;;;;;6.09;83.55;97675.81;4978809;28;20068;-82
2022/04/05 06:58:36;;;;;;;5.10;3.78;;;;;;;6.16;84.56;97676.41;4996435;28;20469;-82
2022/04/05 07:01:01;;;;;;;6.32;4.80;;;;;;;6.19;84.56;97681.22;4997839;28;20474;-82
2022/04/05 07:03:26;;;;;;;6.20;4.95;;;;;;;6.18;84.54;97684.88;4999031;28;20034;-81
2022/04/05 07:05:52;;;;;;;6.72;5.13;;;;;;;6.23;84.86;97689.44;4968575;28;20053;-81
2022/04/05 07:08:17;;;;;;;5.32;4.10;;;;;;;6.21;84.83;97686.25;4987116;28;20037;-82
2022/04/05 07:10:42;;;;;;;6.25;4.93;;;;;;;6.23;84.24;97686.78;5007005;28;20456;-82
2022/04/05 07:13:08;;;;;;;4.78;4.03;;;;;;;6.26;84.21;97689.78;5006728;28;20084;-81
2022/04/05 07:15:34;;;;;;;6.57;5.03;;;;;;;6.30;84.06;97684.75;4978709;28;20525;-82
2022/04/05 07:17:59;;;;;;;5.82;4.25;;;;;;;6.27;83.94;97672.03;5007869;28;20088;-81
2022/04/05 07:20:25;;;;;;;5.57;4.50;;;;;;;6.31;84.05;97681.84;5004527;28;20030;-81
2022/04/05 07:22:50;;;;;;;5.57;4.43;;;;;;;6.28;83.91;97674.41;5002323;28;20026;-81
2022/04/05 07:25:19;;;;;;;5.45;4.78;;;;;;;6.33;83.60;97666.53;4991333;28;20064;-81
2022/04/05 07:27:44;;;;;;;5.43;4.63;;;;;;;6.35;84.23;97669.72;4996038;28;20063;-81
2022/04/05 07:30:12;;;;;;;6.25;4.97;;;;;;;6.37;83.78;97680.88;5001033;28;20054;-81
2022/04/05 07:32:38;;;;;;;6.72;5.10;;;;;;;6.40;83.69;97679.59;5004480;28;20588;-81
2022/04/05 07:35:04;;;;;;;6.38;4.97;;;;;;;6.41;83.97;97678.50;4987787;28;20034;-81
2022/04/05 07:37:30;;;;;;;7.15;4.75;;;;;;;6.43;84.12;97677.22;4999251;28;20121;-81
2022/04/05 07:39:58;;;;;;;6.55;4.60;;;;;;;6.45;83.58;97674.31;4985840;28;20064;-81
2022/04/05 07:42:23;;;;;;;5.70;4.90;;;;;;;6.48;84.06;97668.53;5009682;28;20041;-81
2022/04/05 07:44:49;;;;;;;6.68;5.30;;;;;;;6.50;84.27;97672.53;5000505;28;20030;-81
2022/04/05 07:47:14;;;;;;;5.47;4.82;;;;;;;6.52;84.30;97664.31;4993636;28;20061;-81
2022/04/05 07:49:39;;;;;;;7.50;5.28;;;;;;;6.52;83.91;97673.06;4999423;28;20038;-81
2022/04/05 07:52:05;;;;;;;5.80;4.57;;;;;;;6.58;84.19;97673.91;4995409;28;20133;-81
2022/04/05 07:54:30;;;;;;;5.63;4.00;;;;;;;6.58;83.70;97676.56;5001966;28;20836;-80
2022/04/05 07:56:55;;;;;;;5.63;4.07;;;;;;;6.63;84.13;97689.88;4999185;28;20530;-81
2022/04/05 07:59:21;;;;;;;5.00;4.50;;;;;;;6.64;84.56;97688.84;4979694;28;20353;-81
2022/04/05 08:01:48;;;;;;;7.03;4.63;;;;;;;6.68;84.42;97684.63;4982705;28;20030;-81
2022/04/05 08:04:13;;;;;;;6.03;4.78;;;;;;;6.70;83.47;97687.81;5004891;28;20600;-81
2022/04/05 08:06:39;;;;;;;6.65;4.78;;;;;;;6.72;83.21;97691.81;5003891;28;20087;-81
2022/04/05 08:09:04;;;;;;;5.22;4.38;;;;;;;6.74;83.65;97692.38;5016622;28;20037;-80
2022/04/05 08:11:29;;;;;;;6.07;4.72;;;;;;;6.75;84.21;97698.44;5005891;28;20038;-80
2022/04/05 08:13:56;;;;;;;5.68;4.35;;;;;;;6.75;83.33;97691.28;5008858;28;20034;-80
2022/04/05 08:16:22;;;;;;;4.22;3.63;;;;;;;6.74;83.26;97694.22;4975162;28;20022;-81
2022/04/05 08:18:47;;;;;;;5.18;4.35;;;;;;;6.77;83.34;97691.84;4994616;28;20029;-78
2022/04/05 08:21:12;;;;;;;4.28;3.83;;;;;;;6.76;82.71;97689.44;5017683;28;20103;-78
2022/04/05 08:23:38;;;;;;;5.00;4.35;;;;;;;6.77;83.13;97699.81;5015210;28;20044;-78
2022/04/05 08:26:04;;;;;;;5.25;4.55;;;;;;;6.76;82.75;97690.25;5006400;28;20025;-78
2022/04/05 08:28:29;;;;;;;7.07;3.92;;;;;;;6.80;83.46;97703.81;4988180;28;20083;-78
2022/04/05 08:30:55;;;;;;;4.57;4.03;;;;;;;6.79;83.50;97707.53;5013301;28;20033;-78
2022/04/05 08:33:20;;;;;;;4.60;3.63;;;;;;;6.77;82.74;97693.72;4993457;28;20030;-78
2022/04/05 08:35:46;;;;;;;5.40;3.92;;;;;;;6.79;83.09;97694.25;5008794;28;20356;-78
2022/04/05 08:38:11;;;;;;;4.75;4.15;;;;;;;6.78;83.10;97695.31;5010362;28;20030;-78
2022/04/05 08:40:36;;;;;;;4.72;4.22;;;;;;;6.76;82.65;97700.06;5006208;28;20025;-78
2022/04/05 08:43:02;;;;;;;5.53;4.70;;;;;;;6.88;82.76;97700.69;4993062;28;20017;-78
2022/04/05 08:45:28;;;;;;;3.90;3.47;;;;;;;6.86;82.75;97700.13;4969829;28;20080;-78
2022/04/05 08:47:56;;;;;;;6.65;4.03;;;;;;;6.85;82.81;97703.84;4989321;28;20034;-78
2022/04/05 08:50:31;;;;;;;5.55;4.07;;;;;;;6.87;82.48;97700.94;5006117;28;20025;-78
2022/04/05 08:53:00;;;;;;;5.28;3.80;;;;;;;6.85;81.83;97687.94;5000036;28;20045;-78
2022/04/05 08:55:26;;;;;;;4.07;3.60;;;;;;;6.86;81.92;97700.13;5015423;28;20382;-78
2022/04/05 08:57:52;;;;;;;4.15;3.50;;;;;;;6.95;82.92;97701.28;4991495;28;20532;-78
2022/04/05 09:00:19;;;;;;;3.80;3.50;;;;;;;6.95;82.13;97705.78;5015250;28;20038;-78
2022/04/05 09:03:02;;;;;;;4.18;3.08;;;;;;;6.95;81.74;97697.81;5020958;28;20053;-78
2022/04/05 09:05:43;;;;;;;4.20;3.40;;;;;;;6.95;82.35;97695.97;5009885;28;20045;-78
2022/04/05 09:08:26;;;;;;;4.82;2.83;;;;;;;6.99;82.63;97701.59;4989794;28;20474;-78
2022/04/05 09:10:54;;;;;;;4.50;3.10;;;;;;;7.01;82.41;97697.59;5006389;28;20034;-78
2022/04/05 09:13:25;;;;;;;3.30;2.85;;;;;;;7.03;82.60;97708.78;5005601;28;20133;-78
2022/04/05 09:15:53;;;;;;;3.90;3.03;;;;;;;7.08;82.13;97700.84;5012950;28;20034;-78
2022/04/05 09:18:38;;;;;;;4.25;3.25;;;;;;;7.10;81.39;97712.00;5009590;28;20029;-78
2022/04/05 09:21:07;;;;;;;4.28;3.42;;;;;;;7.11;81.25;97708.31;5012504;28;20079;-78
2022/04/05 09:23:43;;;;;;;3.85;3.22;;;;;;;7.14;81.89;97705.13;4991104;28;20569;-78
2022/04/05 09:26:15;;;;;;;3.28;2.80;;;;;;;7.20;81.36;97700.69;5006219;28;20489;-78
2022/04/05 09:28:44;;;;;;;3.58;2.70;;;;;;;7.23;81.08;97693.00;5007610;28;20025;-78
2022/04/05 09:31:11;;;;;;;3.10;2.75;;;;;;;7.28;80.27;97689.59;5004862;28;20385;-78
2022/04/05 09:33:40;;;;;;;3.20;2.67;;;;;;;7.48;80.26;97692.38;5013427;28;20065;-78
2022/04/05 09:36:09;;;;;;;6.15;3.40;;;;;;;7.63;80.33;97687.16;5008295;28;20063;-77
2022/04/05 09:38:36;;;;;;;3.90;3.03;;;;;;;7.41;81.34;97692.59;5008820;28;20054;-78
2022/04/05 09:41:17;;;;;;;4.97;2.60;;;;;;;7.44;81.38;97681.47;5008212;28;20058;-78
2022/04/05 09:43:56;;;;;;;3.15;2.83;;;;;;;7.55;81.60;97690.28;4988866;28;20091;-78
2022/04/05 09:46:22;;;;;;;4.18;2.80;;;;;;;7.60;81.44;97681.56;5016059;28;20026;-78
2022/04/05 09:48:47;;;;;;;6.00;3.50;;;;;;;7.66;81.24;97681.34;5004113;28;20174;-78
2022/04/05 09:51:16;;;;;;;3.00;2.70;;;;;;;7.71;80.73;97680.56;5010446;28;20137;-78
2022/04/05 09:53:50;;;;;;;3.45;2.67;;;;;;;7.72;81.45;97682.13;5024617;28;20124;-78
2022/04/05 09:56:22;;;;;;;4.85;2.53;;;;;;;7.76;81.02;97677.91;5008187;28;20042;-78
2022/04/05 09:58:53;;;;;;;3.25;2.95;;;;;;;7.82;80.60;97676.88;5007940;28;20032;-78
2022/04/05 10:01:21;;;;;;;5.75;2.67;;;;;;;7.86;80.97;97684.09;5003845;28;20036;-78
2022/04/05 10:04:14;;;;;;;5.20;2.72;;;;;;;7.84;80.98;97675.56;5011054;28;20399;-78
2022/04/05 10:06:43;;;;;;;2.50;2.30;;;;;;;7.84;81.15;97683.53;5007323;28;20029;-78
2022/04/05 10:09:09;;;;;;;3.67;2.60;;;;;;;7.89;81.74;97680.91;5014095;28;20025;-78
2022/04/05 10:11:37;;;;;;;3.88;2.75;;;;;;;7.88;81.10;97679.31;5011624;28;20038;-78
2022/04/05 10:14:03;;;;;;;2.97;2.38;;;;;;;7.90;80.78;97679.03;5011814;28;20026;-78
2022/04/05 10:16:29;;;;;;;3.10;2.70;;;;;;;7.93;80.98;97681.19;4996215;28;20394;-78
2022/04/05 10:19:00;;;;;;;3.65;2.92;;;;;;;7.98;79.79;97681.19;5012733;28;20065;-78
2022/04/05 10:21:27;;;;;;;2.72;2.50;;;;;;;8.02;80.12;97691.03;4988008;28;20642;-77
2022/04/05 10:23:57;;;;;;;2.85;2.65;;;;;;;8.04;80.21;97682.81;5013968;28;20341;-78
2022/04/05 10:26:26;;;;;;;3.42;2.22;;;;;;;8.06;80.18;97684.16;4987481;28;20061;-78
2022/04/05 10:28:53;;;;;;;4.88;2.40;;;;;;;8.12;79.83;97666.38;5013950;28;20027;-78
2022/04/05 10:31:51;;;;;;;3.83;2.10;;;;;;;8.12;79.65;97677.00;5010091;28;20034;-77
2022/04/05 10:34:34;;;;;;;2.17;2.00;;;;;;;8.20;79.94;97669.31;4999419;28;20030;-78
2022/04/05 10:37:16;;;;;;;3.25;2.30;;;;;;;8.25;81.44;97671.19;5007529;28;20500;-78
2022/04/05 10:39:41;;;;;;;2.22;2.03;;;;;;;8.23;80.45;97673.31;5013665;28;20024;-78
2022/04/05 10:42:12;;;;;;;2.65;2.15;;;;;;;8.24;79.47;97667.72;4994298;28;20034;-77
2022/04/05 10:44:48;;;;;;;2.33;2.13;;;;;;;8.28;79.80;97662.72;5013883;28;20033;-77
2022/04/05 10:47:14;;;;;;;2.15;1.95;;;;;;;8.32;80.33;97667.25;5010292;28;20042;-78
2022/04/05 10:49:51;;;;;;;1.67;1.58;;;;;;;8.36;80.53;97659.56;4990249;28;20050;-78
2022/04/05 10:52:23;;;;;;;1.80;1.65;;;;;;;8.37;80.34;97661.13;5012269;28;20036;-78
2022/04/05 10:54:51;;;;;;;3.13;1.55;;;;;;;8.37;80.78;97658.47;5013734;28;20037;-78
2022/04/05 10:57:32;;;;;;;4.63;1.80;;;;;;;8.47;81.57;97652.38;5011450;28;20041;-78
2022/04/05 11:00:20;;;;;;;1.73;1.60;;;;;;;8.51;81.00;97648.13;5011435;28;20128;-78
2022/04/05 11:03:07;;;;;;;1.95;1.85;;;;;;;8.50;80.32;97652.66;4989684;28;20125;-78
2022/04/05 11:05:37;;;;;;;2.70;2.45;;;;;;;8.52;80.64;97649.75;5013082;28;20058;-78
2022/04/05 11:08:09;;;;;;;2.67;2.47;;;;;;;8.56;80.72;97645.50;5013418;28;20063;-78
2022/04/05 11:10:37;;;;;;;4.20;2.70;;;;;;;8.59;80.50;97650.25;4995310;28;20036;-78
2022/04/05 11:13:14;;;;;;;2.28;2.10;;;;;;;8.60;80.94;97650.03;5012290;28;20381;-78
2022/04/05 11:15:45;;;;;;;2.65;2.25;;;;;;;8.61;80.64;97638.31;5008545;28;20030;-78
2022/04/05 11:18:15;;;;;;;2.63;2.15;;;;;;;8.62;81.48;97644.44;5011505;28;20087;-78
2022/04/05 11:20:41;;;;;;;2.20;1.83;;;;;;;8.67;81.16;97637.25;5003689;28;20034;-78
2022/04/05 11:23:07;;;;;;;2.05;1.75;;;;;;;8.72;81.66;97623.16;5020814;28;20105;-78
2022/04/05 11:25:32;;;;;;;2.13;1.92;;;;;;;8.78;81.45;97628.19;5010100;28;20338;-78
2022/04/05 11:28:21;;;;;;;2.25;2.08;;;;;;;8.78;80.89;97627.41;5009392;28;20038;-78
2022/04/05 11:30:46;;;;;;;1.90;1.80;;;;;;;8.91;80.54;97622.34;5003753;28;20554;-78
2022/04/05 11:33:18;;;;;;;2.17;1.40;;;;;;;8.88;81.24;97616.75;5024674;28;20124;-78
2022/04/05 11:35:59;;;;;;;1.50;1.40;;;;;;;8.86;81.47;97614.38;5011305;28;20036;-78
2022/04/05 11:38:29;;;;;;;1.23;1.23;;;;;;;8.86;81.90;97611.72;5002998;28;20042;-78
2022/04/05 11:41:02;;;;;;;1.80;1.40;;;;;;;8.91;81.57;97627.66;5010356;28;20025;-78
2022/04/05 11:43:31;;;;;;;1.65;1.55;;;;;;;8.88;81.74;97614.91;4997609;28;20022;-78